sensor_id;sensor_type;location;lat;lon;timestamp;P1;durP1;ratioP1;P2;durP2;ratioP2
65279;SDS011;51878;55.748;48.742;2023-03-31T00:00:41;4.63;;;1.25;;
65279;SDS011;51878;55.748;48.742;2023-03-31T00:05:54;3.25;;;1.42;;
65279;SDS011;51878;55.748;48.742;2023-03-31T00:10:58;3.45;;;1.20;;
65279;SDS011;51878;55.748;48.742;2023-03-31T00:16:02;4.10;;;1.38;;
65279;SDS011;51878;55.748;48.742;2023-03-31T00:21:11;2.78;;;1.27;;
65279;SDS011;51878;55.748;48.742;2023-03-31T00:26:17;1.90;;;1.30;;
65279;SDS011;51878;55.748;48.742;2023-03-31T00:31:20;2.20;;;1.00;;
65279;SDS011;51878;55.748;48.742;2023-03-31T00:36:23;1.20;;;1.10;;
65279;SDS011;51878;55.748;48.742;2023-03-31T00:41:29;2.78;;;1.30;;
65279;SDS011;51878;55.748;48.742;2023-03-31T00:46:44;2.42;;;1.50;;
65279;SDS011;51878;55.748;48.742;2023-03-31T00:51:54;2.47;;;0.98;;
65279;SDS011;51878;55.748;48.742;2023-03-31T00:57:19;1.33;;;1.20;;
65279;SDS011;51878;55.748;48.742;2023-03-31T01:02:24;2.20;;;1.15;;
65279;SDS011;51878;55.748;48.742;2023-03-31T01:12:46;7.07;;;1.20;;
65279;SDS011;51878;55.748;48.742;2023-03-31T01:17:52;2.58;;;1.20;;
65279;SDS011;51878;55.748;48.742;2023-03-31T01:28:34;3.20;;;1.30;;
65279;SDS011;51878;55.748;48.742;2023-03-31T01:39:14;5.35;;;1.50;;
65279;SDS011;51878;55.748;48.742;2023-03-31T01:44:45;2.33;;;1.25;;
65279;SDS011;51878;55.748;48.742;2023-03-31T01:50:16;2.60;;;1.20;;
65279;SDS011;51878;55.748;48.742;2023-03-31T01:55:35;1.20;;;1.10;;
65279;SDS011;51878;55.748;48.742;2023-03-31T02:00:42;2.93;;;1.47;;
65279;SDS011;51878;55.748;48.742;2023-03-31T02:05:53;4.53;;;1.35;;
65279;SDS011;51878;55.748;48.742;2023-03-31T02:10:58;4.70;;;1.33;;
65279;SDS011;51878;55.748;48.742;2023-03-31T02:16:03;4.78;;;1.50;;
65279;SDS011;51878;55.748;48.742;2023-03-31T02:21:10;1.25;;;1.10;;
65279;SDS011;51878;55.748;48.742;2023-03-31T02:26:16;1.50;;;1.25;;
65279;SDS011;51878;55.748;48.742;2023-03-31T02:31:26;7.82;;;1.40;;
65279;SDS011;51878;55.748;48.742;2023-03-31T02:36:36;1.77;;;1.15;;
65279;SDS011;51878;55.748;48.742;2023-03-31T02:41:38;1.50;;;1.33;;
65279;SDS011;51878;55.748;48.742;2023-03-31T02:46:40;8.57;;;1.50;;
65279;SDS011;51878;55.748;48.742;2023-03-31T03:08:27;7.40;;;1.88;;
65279;SDS011;51878;55.748;48.742;2023-03-31T03:18:58;1.40;;;1.30;;
65279;SDS011;51878;55.748;48.742;2023-03-31T03:24:05;1.58;;;1.35;;
65279;SDS011;51878;55.748;48.742;2023-03-31T03:29:07;2.03;;;1.20;;
65279;SDS011;51878;55.748;48.742;2023-03-31T03:34:10;1.42;;;1.30;;
65279;SDS011;51878;55.748;48.742;2023-03-31T03:39:12;2.28;;;1.50;;
65279;SDS011;51878;55.748;48.742;2023-03-31T03:44:14;13.85;;;1.70;;
65279;SDS011;51878;55.748;48.742;2023-03-31T03:49:16;2.65;;;1.20;;
65279;SDS011;51878;55.748;48.742;2023-03-31T03:54:18;3.58;;;1.40;;
65279;SDS011;51878;55.748;48.742;2023-03-31T03:59:22;1.33;;;1.23;;
65279;SDS011;51878;55.748;48.742;2023-03-31T04:04:25;3.60;;;1.60;;
65279;SDS011;51878;55.748;48.742;2023-03-31T04:09:27;2.42;;;1.20;;
65279;SDS011;51878;55.748;48.742;2023-03-31T04:14:29;3.53;;;1.75;;
65279;SDS011;51878;55.748;48.742;2023-03-31T04:19:31;1.50;;;1.35;;
65279;SDS011;51878;55.748;48.742;2023-03-31T04:24:33;3.13;;;1.23;;
65279;SDS011;51878;55.748;48.742;2023-03-31T04:29:39;1.30;;;1.10;;
65279;SDS011;51878;55.748;48.742;2023-03-31T04:34:43;2.22;;;1.38;;
65279;SDS011;51878;55.748;48.742;2023-03-31T04:39:47;1.60;;;1.08;;
65279;SDS011;51878;55.748;48.742;2023-03-31T04:44:51;1.38;;;1.20;;
65279;SDS011;51878;55.748;48.742;2023-03-31T04:49:54;2.05;;;1.35;;
65279;SDS011;51878;55.748;48.742;2023-03-31T04:54:56;5.38;;;2.40;;
65279;SDS011;51878;55.748;48.742;2023-03-31T04:59:58;1.20;;;1.10;;
65279;SDS011;51878;55.748;48.742;2023-03-31T05:05:04;2.50;;;1.80;;
65279;SDS011;51878;55.748;48.742;2023-03-31T05:10:06;3.38;;;1.20;;
65279;SDS011;51878;55.748;48.742;2023-03-31T05:15:09;2.38;;;1.40;;
65279;SDS011;51878;55.748;48.742;2023-03-31T05:20:11;2.47;;;1.40;;
65279;SDS011;51878;55.748;48.742;2023-03-31T05:25:15;1.58;;;1.15;;
65279;SDS011;51878;55.748;48.742;2023-03-31T05:30:19;1.73;;;1.35;;
65279;SDS011;51878;55.748;48.742;2023-03-31T05:35:21;3.90;;;1.60;;
65279;SDS011;51878;55.748;48.742;2023-03-31T05:40:23;46.08;;;3.33;;
65279;SDS011;51878;55.748;48.742;2023-03-31T05:45:26;2.90;;;1.30;;
65279;SDS011;51878;55.748;48.742;2023-03-31T05:50:28;5.35;;;1.35;;
65279;SDS011;51878;55.748;48.742;2023-03-31T05:55:37;5.43;;;1.40;;
65279;SDS011;51878;55.748;48.742;2023-03-31T06:00:39;2.42;;;1.08;;
65279;SDS011;51878;55.748;48.742;2023-03-31T06:05:46;7.80;;;1.73;;
65279;SDS011;51878;55.748;48.742;2023-03-31T06:10:48;3.60;;;1.73;;
65279;SDS011;51878;55.748;48.742;2023-03-31T06:15:54;2.97;;;1.45;;
65279;SDS011;51878;55.748;48.742;2023-03-31T06:20:58;2.65;;;1.60;;
65279;SDS011;51878;55.748;48.742;2023-03-31T06:26:06;1.92;;;1.42;;
65279;SDS011;51878;55.748;48.742;2023-03-31T06:31:10;1.40;;;1.30;;
65279;SDS011;51878;55.748;48.742;2023-03-31T06:36:15;2.33;;;1.35;;
65279;SDS011;51878;55.748;48.742;2023-03-31T06:41:19;2.95;;;1.65;;
65279;SDS011;51878;55.748;48.742;2023-03-31T06:46:22;6.22;;;1.65;;
65279;SDS011;51878;55.748;48.742;2023-03-31T06:51:25;1.67;;;1.40;;
65279;SDS011;51878;55.748;48.742;2023-03-31T06:56:27;4.63;;;1.40;;
65279;SDS011;51878;55.748;48.742;2023-03-31T07:01:29;3.33;;;1.92;;
65279;SDS011;51878;55.748;48.742;2023-03-31T07:06:32;1.75;;;1.20;;
65279;SDS011;51878;55.748;48.742;2023-03-31T07:11:35;2.67;;;1.38;;
65279;SDS011;51878;55.748;48.742;2023-03-31T07:16:37;2.45;;;1.35;;
65279;SDS011;51878;55.748;48.742;2023-03-31T07:21:42;5.10;;;2.45;;
65279;SDS011;51878;55.748;48.742;2023-03-31T07:26:44;3.85;;;1.40;;
65279;SDS011;51878;55.748;48.742;2023-03-31T07:31:46;2.35;;;1.25;;
65279;SDS011;51878;55.748;48.742;2023-03-31T07:36:49;4.43;;;1.40;;
65279;SDS011;51878;55.748;48.742;2023-03-31T07:41:52;6.25;;;1.75;;
65279;SDS011;51878;55.748;48.742;2023-03-31T07:46:54;3.28;;;1.73;;
65279;SDS011;51878;55.748;48.742;2023-03-31T07:51:56;2.67;;;1.70;;
65279;SDS011;51878;55.748;48.742;2023-03-31T07:57:01;14.95;;;1.70;;
65279;SDS011;51878;55.748;48.742;2023-03-31T08:02:05;3.20;;;1.67;;
65279;SDS011;51878;55.748;48.742;2023-03-31T08:07:08;3.10;;;1.73;;
65279;SDS011;51878;55.748;48.742;2023-03-31T08:12:12;8.27;;;2.00;;
65279;SDS011;51878;55.748;48.742;2023-03-31T08:17:15;2.33;;;1.65;;
65279;SDS011;51878;55.748;48.742;2023-03-31T08:22:17;3.63;;;2.03;;
65279;SDS011;51878;55.748;48.742;2023-03-31T08:27:19;4.15;;;1.80;;
65279;SDS011;51878;55.748;48.742;2023-03-31T08:32:22;3.92;;;1.65;;
65279;SDS011;51878;55.748;48.742;2023-03-31T08:37:25;5.05;;;1.60;;
65279;SDS011;51878;55.748;48.742;2023-03-31T08:42:38;2.53;;;1.45;;
65279;SDS011;51878;55.748;48.742;2023-03-31T08:47:45;5.18;;;1.60;;
65279;SDS011;51878;55.748;48.742;2023-03-31T08:53:33;3.08;;;1.70;;
65279;SDS011;51878;55.748;48.742;2023-03-31T09:15:00;4.15;;;1.63;;
65279;SDS011;51878;55.748;48.742;2023-03-31T09:20:06;4.03;;;1.45;;
65279;SDS011;51878;55.748;48.742;2023-03-31T09:25:20;3.65;;;1.70;;
65279;SDS011;51878;55.748;48.742;2023-03-31T09:30:28;3.03;;;1.70;;
65279;SDS011;51878;55.748;48.742;2023-03-31T09:35:32;3.53;;;1.80;;
65279;SDS011;51878;55.748;48.742;2023-03-31T09:40:34;4.15;;;2.50;;
65279;SDS011;51878;55.748;48.742;2023-03-31T09:45:36;2.72;;;1.77;;
65279;SDS011;51878;55.748;48.742;2023-03-31T09:50:40;4.25;;;1.85;;
65279;SDS011;51878;55.748;48.742;2023-03-31T09:55:52;2.05;;;1.50;;
65279;SDS011;51878;55.748;48.742;2023-03-31T10:01:04;7.30;;;2.05;;
65279;SDS011;51878;55.748;48.742;2023-03-31T10:06:10;5.30;;;1.90;;
65279;SDS011;51878;55.748;48.742;2023-03-31T10:11:15;3.13;;;1.85;;
65279;SDS011;51878;55.748;48.742;2023-03-31T10:16:22;4.35;;;1.63;;
65279;SDS011;51878;55.748;48.742;2023-03-31T10:26:36;3.53;;;1.88;;
65279;SDS011;51878;55.748;48.742;2023-03-31T10:31:40;4.20;;;1.88;;
65279;SDS011;51878;55.748;48.742;2023-03-31T10:36:46;20.90;;;2.25;;
65279;SDS011;51878;55.748;48.742;2023-03-31T10:41:50;3.58;;;1.90;;
65279;SDS011;51878;55.748;48.742;2023-03-31T10:46:53;3.50;;;2.08;;
65279;SDS011;51878;55.748;48.742;2023-03-31T10:51:57;3.33;;;1.83;;
65279;SDS011;51878;55.748;48.742;2023-03-31T10:57:01;3.83;;;1.88;;
65279;SDS011;51878;55.748;48.742;2023-03-31T11:08:03;4.70;;;1.77;;
65279;SDS011;51878;55.748;48.742;2023-03-31T11:34:53;5.50;;;2.10;;
65279;SDS011;51878;55.748;48.742;2023-03-31T11:45:37;4.65;;;2.20;;
65279;SDS011;51878;55.748;48.742;2023-03-31T11:50:45;2.83;;;2.20;;
65279;SDS011;51878;55.748;48.742;2023-03-31T11:55:49;6.63;;;2.70;;
65279;SDS011;51878;55.748;48.742;2023-03-31T12:00:56;4.30;;;2.42;;
65279;SDS011;51878;55.748;48.742;2023-03-31T12:06:08;4.77;;;2.37;;
65279;SDS011;51878;55.748;48.742;2023-03-31T12:11:21;3.28;;;2.42;;
65279;SDS011;51878;55.748;48.742;2023-03-31T12:21:40;3.15;;;2.42;;
65279;SDS011;51878;55.748;48.742;2023-03-31T12:31:58;3.90;;;2.60;;
65279;SDS011;51878;55.748;48.742;2023-03-31T12:42:47;3.72;;;2.60;;
65279;SDS011;51878;55.748;48.742;2023-03-31T12:53:26;3.88;;;2.70;;
65279;SDS011;51878;55.748;48.742;2023-03-31T12:58:37;6.75;;;2.90;;
65279;SDS011;51878;55.748;48.742;2023-03-31T13:03:45;5.28;;;2.90;;
65279;SDS011;51878;55.748;48.742;2023-03-31T13:08:58;9.43;;;3.25;;
65279;SDS011;51878;55.748;48.742;2023-03-31T13:14:26;4.68;;;3.03;;
65279;SDS011;51878;55.748;48.742;2023-03-31T13:19:38;5.90;;;2.67;;
65279;SDS011;51878;55.748;48.742;2023-03-31T13:24:42;5.18;;;3.25;;
65279;SDS011;51878;55.748;48.742;2023-03-31T13:29:44;3.47;;;2.70;;
65279;SDS011;51878;55.748;48.742;2023-03-31T13:34:51;4.18;;;2.85;;
65279;SDS011;51878;55.748;48.742;2023-03-31T13:40:21;5.00;;;3.13;;
65279;SDS011;51878;55.748;48.742;2023-03-31T14:07:14;3.80;;;2.60;;
65279;SDS011;51878;55.748;48.742;2023-03-31T14:17:35;2.95;;;2.42;;
65279;SDS011;51878;55.748;48.742;2023-03-31T14:38:51;2.17;;;1.98;;
65279;SDS011;51878;55.748;48.742;2023-03-31T14:43:54;3.28;;;2.53;;
65279;SDS011;51878;55.748;48.742;2023-03-31T14:49:06;2.20;;;2.05;;
65279;SDS011;51878;55.748;48.742;2023-03-31T14:54:21;2.75;;;2.50;;
65279;SDS011;51878;55.748;48.742;2023-03-31T14:59:28;4.35;;;2.97;;
65279;SDS011;51878;55.748;48.742;2023-03-31T15:04:35;6.57;;;3.08;;
65279;SDS011;51878;55.748;48.742;2023-03-31T15:09:48;6.03;;;3.08;;
65279;SDS011;51878;55.748;48.742;2023-03-31T15:14:53;4.60;;;3.90;;
65279;SDS011;51878;55.748;48.742;2023-03-31T15:19:59;5.05;;;3.42;;
65279;SDS011;51878;55.748;48.742;2023-03-31T15:25:25;6.78;;;4.55;;
65279;SDS011;51878;55.748;48.742;2023-03-31T15:30:38;6.13;;;4.13;;
65279;SDS011;51878;55.748;48.742;2023-03-31T15:35:43;8.40;;;5.13;;
65279;SDS011;51878;55.748;48.742;2023-03-31T15:40:48;9.15;;;4.63;;
65279;SDS011;51878;55.748;48.742;2023-03-31T15:45:58;6.55;;;4.68;;
65279;SDS011;51878;55.748;48.742;2023-03-31T15:56:28;6.63;;;5.93;;
65279;SDS011;51878;55.748;48.742;2023-03-31T16:01:37;18.45;;;7.18;;
65279;SDS011;51878;55.748;48.742;2023-03-31T16:06:45;18.55;;;6.63;;
65279;SDS011;51878;55.748;48.742;2023-03-31T16:11:55;12.02;;;7.45;;
65279;SDS011;51878;55.748;48.742;2023-03-31T16:17:00;17.73;;;6.95;;
65279;SDS011;51878;55.748;48.742;2023-03-31T16:22:30;16.42;;;8.07;;
65279;SDS011;51878;55.748;48.742;2023-03-31T16:27:39;15.73;;;9.35;;
65279;SDS011;51878;55.748;48.742;2023-03-31T16:32:59;16.35;;;8.77;;
65279;SDS011;51878;55.748;48.742;2023-03-31T16:38:05;14.05;;;10.30;;
65279;SDS011;51878;55.748;48.742;2023-03-31T16:43:18;12.15;;;9.10;;
65279;SDS011;51878;55.748;48.742;2023-03-31T16:48:23;14.13;;;10.75;;
65279;SDS011;51878;55.748;48.742;2023-03-31T16:53:29;11.82;;;9.07;;
65279;SDS011;51878;55.748;48.742;2023-03-31T16:59:05;12.20;;;10.52;;
65279;SDS011;51878;55.748;48.742;2023-03-31T17:04:09;14.85;;;10.18;;
65279;SDS011;51878;55.748;48.742;2023-03-31T17:09:11;14.10;;;9.90;;
65279;SDS011;51878;55.748;48.742;2023-03-31T17:14:13;12.50;;;10.27;;
65279;SDS011;51878;55.748;48.742;2023-03-31T17:19:16;13.65;;;10.27;;
65279;SDS011;51878;55.748;48.742;2023-03-31T17:24:18;11.88;;;9.90;;
65279;SDS011;51878;55.748;48.742;2023-03-31T17:29:20;11.73;;;8.60;;
65279;SDS011;51878;55.748;48.742;2023-03-31T17:34:22;10.38;;;7.85;;
65279;SDS011;51878;55.748;48.742;2023-03-31T17:39:25;12.07;;;7.90;;
65279;SDS011;51878;55.748;48.742;2023-03-31T17:44:28;9.02;;;6.70;;
65279;SDS011;51878;55.748;48.742;2023-03-31T17:49:30;9.13;;;7.53;;
65279;SDS011;51878;55.748;48.742;2023-03-31T17:54:33;9.32;;;7.10;;
65279;SDS011;51878;55.748;48.742;2023-03-31T17:59:36;9.73;;;7.43;;
65279;SDS011;51878;55.748;48.742;2023-03-31T18:04:39;6.93;;;5.97;;
65279;SDS011;51878;55.748;48.742;2023-03-31T18:09:42;7.40;;;5.75;;
65279;SDS011;51878;55.748;48.742;2023-03-31T18:14:45;6.78;;;4.93;;
65279;SDS011;51878;55.748;48.742;2023-03-31T18:19:48;7.43;;;4.80;;
65279;SDS011;51878;55.748;48.742;2023-03-31T18:24:51;5.05;;;4.45;;
65279;SDS011;51878;55.748;48.742;2023-03-31T18:29:53;4.80;;;3.65;;
65279;SDS011;51878;55.748;48.742;2023-03-31T18:34:57;4.20;;;3.72;;
65279;SDS011;51878;55.748;48.742;2023-03-31T18:40:00;3.72;;;2.88;;
65279;SDS011;51878;55.748;48.742;2023-03-31T18:45:05;4.25;;;2.95;;
65279;SDS011;51878;55.748;48.742;2023-03-31T18:50:09;2.70;;;2.13;;
65279;SDS011;51878;55.748;48.742;2023-03-31T18:55:12;3.17;;;2.42;;
65279;SDS011;51878;55.748;48.742;2023-03-31T19:00:14;2.63;;;2.25;;
65279;SDS011;51878;55.748;48.742;2023-03-31T19:05:16;1.85;;;1.60;;
65279;SDS011;51878;55.748;48.742;2023-03-31T19:10:18;1.70;;;1.60;;
65279;SDS011;51878;55.748;48.742;2023-03-31T19:15:21;1.33;;;1.30;;
65279;SDS011;51878;55.748;48.742;2023-03-31T19:20:23;2.03;;;1.65;;
65279;SDS011;51878;55.748;48.742;2023-03-31T19:25:29;1.48;;;1.38;;
65279;SDS011;51878;55.748;48.742;2023-03-31T19:30:38;1.85;;;1.75;;
65279;SDS011;51878;55.748;48.742;2023-03-31T19:35:41;1.90;;;1.80;;
65279;SDS011;51878;55.748;48.742;2023-03-31T19:40:48;2.20;;;2.00;;
65279;SDS011;51878;55.748;48.742;2023-03-31T19:45:58;4.43;;;1.90;;
65279;SDS011;51878;55.748;48.742;2023-03-31T19:51:03;2.22;;;1.85;;
65279;SDS011;51878;55.748;48.742;2023-03-31T19:56:16;2.05;;;1.80;;
65279;SDS011;51878;55.748;48.742;2023-03-31T20:01:25;1.83;;;1.73;;
65279;SDS011;51878;55.748;48.742;2023-03-31T20:06:28;2.75;;;1.63;;
65279;SDS011;51878;55.748;48.742;2023-03-31T20:11:32;2.55;;;1.98;;
65279;SDS011;51878;55.748;48.742;2023-03-31T20:16:35;4.63;;;2.08;;
65279;SDS011;51878;55.748;48.742;2023-03-31T20:21:38;1.60;;;1.50;;
65279;SDS011;51878;55.748;48.742;2023-03-31T20:26:40;1.60;;;1.50;;
65279;SDS011;51878;55.748;48.742;2023-03-31T20:31:42;2.38;;;1.60;;
65279;SDS011;51878;55.748;48.742;2023-03-31T20:36:45;4.40;;;1.50;;
65279;SDS011;51878;55.748;48.742;2023-03-31T20:41:49;1.70;;;1.60;;
65279;SDS011;51878;55.748;48.742;2023-03-31T20:46:52;1.60;;;1.50;;
65279;SDS011;51878;55.748;48.742;2023-03-31T20:51:56;2.15;;;1.40;;
65279;SDS011;51878;55.748;48.742;2023-03-31T20:56:59;1.75;;;1.50;;
65279;SDS011;51878;55.748;48.742;2023-03-31T21:02:06;1.77;;;1.67;;
65279;SDS011;51878;55.748;48.742;2023-03-31T21:07:08;1.65;;;1.55;;
65279;SDS011;51878;55.748;48.742;2023-03-31T21:12:10;1.52;;;1.42;;
65279;SDS011;51878;55.748;48.742;2023-03-31T21:17:12;1.50;;;1.40;;
65279;SDS011;51878;55.748;48.742;2023-03-31T21:22:14;1.60;;;1.50;;
65279;SDS011;51878;55.748;48.742;2023-03-31T21:27:16;2.08;;;1.90;;
65279;SDS011;51878;55.748;48.742;2023-03-31T21:32:18;1.65;;;1.55;;
65279;SDS011;51878;55.748;48.742;2023-03-31T21:37:21;1.58;;;1.48;;
65279;SDS011;51878;55.748;48.742;2023-03-31T21:42:23;1.95;;;1.85;;
65279;SDS011;51878;55.748;48.742;2023-03-31T21:47:26;2.42;;;1.90;;
65279;SDS011;51878;55.748;48.742;2023-03-31T21:52:29;3.03;;;2.00;;
65279;SDS011;51878;55.748;48.742;2023-03-31T21:57:31;3.25;;;2.05;;
65279;SDS011;51878;55.748;48.742;2023-03-31T22:02:33;2.30;;;1.92;;
65279;SDS011;51878;55.748;48.742;2023-03-31T22:07:35;2.60;;;2.40;;
65279;SDS011;51878;55.748;48.742;2023-03-31T22:12:38;2.35;;;2.00;;
65279;SDS011;51878;55.748;48.742;2023-03-31T22:17:40;4.80;;;2.30;;
65279;SDS011;51878;55.748;48.742;2023-03-31T22:22:42;2.78;;;2.10;;
65279;SDS011;51878;55.748;48.742;2023-03-31T22:27:44;2.65;;;2.30;;
65279;SDS011;51878;55.748;48.742;2023-03-31T22:32:46;2.40;;;2.20;;
65279;SDS011;51878;55.748;48.742;2023-03-31T22:37:49;3.17;;;2.80;;
65279;SDS011;51878;55.748;48.742;2023-03-31T22:42:51;2.72;;;2.42;;
65279;SDS011;51878;55.748;48.742;2023-03-31T22:47:55;2.60;;;2.40;;
65279;SDS011;51878;55.748;48.742;2023-03-31T22:52:57;2.67;;;2.40;;
65279;SDS011;51878;55.748;48.742;2023-03-31T22:57:59;4.45;;;2.80;;
65279;SDS011;51878;55.748;48.742;2023-03-31T23:03:04;2.95;;;2.58;;
65279;SDS011;51878;55.748;48.742;2023-03-31T23:08:07;2.47;;;2.28;;
65279;SDS011;51878;55.748;48.742;2023-03-31T23:13:09;2.63;;;2.40;;
65279;SDS011;51878;55.748;48.742;2023-03-31T23:18:11;2.90;;;2.60;;
65279;SDS011;51878;55.748;48.742;2023-03-31T23:23:13;3.28;;;2.40;;
65279;SDS011;51878;55.748;48.742;2023-03-31T23:28:16;3.33;;;2.47;;
65279;SDS011;51878;55.748;48.742;2023-03-31T23:33:18;2.20;;;2.00;;
65279;SDS011;51878;55.748;48.742;2023-03-31T23:38:20;2.72;;;2.38;;
65279;SDS011;51878;55.748;48.742;2023-03-31T23:43:23;2.25;;;1.90;;
65279;SDS011;51878;55.748;48.742;2023-03-31T23:48:26;2.67;;;2.20;;
65279;SDS011;51878;55.748;48.742;2023-03-31T23:53:28;2.45;;;2.25;;
65279;SDS011;51878;55.748;48.742;2023-03-31T23:58:31;2.17;;;1.98;;
